Time;durP1;ratioP1;P1;durP2;ratioP2;P2;SDS_P1;SDS_P2;PMS_P1;PMS_P2;Temp;Humidity;BMP_temperature;BMP_pressure;BME280_temperature;BME280_humidity;BME280_pressure;Samples;Min_cycle;Max_cycle;Signal;HPM_P1;HPM_P2
2022/03/09 00:01:11;;;;;;;10.05;7.45;;;3.70;99.90;;;;;;5073266;28;20041;-63
2022/03/09 00:03:36;;;;;;;10.93;7.45;;;3.70;99.90;;;;;;5072870;28;20117;-63
2022/03/09 00:06:02;;;;;;;11.63;7.03;;;3.70;99.90;;;;;;5073622;28;20041;-62
2022/03/09 00:08:27;;;;;;;9.30;7.00;;;3.60;99.90;;;;;;5073680;28;20032;-63
2022/03/09 00:10:53;;;;;;;10.57;7.22;;;3.70;99.90;;;;;;5073372;28;20044;-62
2022/03/09 00:13:19;;;;;;;11.35;7.82;;;3.60;99.90;;;;;;5073058;28;20041;-63
2022/03/09 00:15:44;;;;;;;10.63;7.75;;;3.50;99.90;;;;;;5073625;28;20112;-62
2022/03/09 00:18:10;;;;;;;16.70;7.93;;;3.60;99.90;;;;;;5073454;28;20058;-62
2022/03/09 00:20:35;;;;;;;13.57;7.68;;;3.50;99.90;;;;;;5073073;28;20458;-62
2022/03/09 00:23:01;;;;;;;11.32;7.50;;;3.60;99.90;;;;;;5072836;28;20048;-62
2022/03/09 00:25:27;;;;;;;12.18;7.65;;;3.50;99.90;;;;;;5072429;28;20465;-62
2022/03/09 00:27:52;;;;;;;12.98;7.85;;;3.60;99.90;;;;;;5073219;28;20036;-62
2022/03/09 00:30:18;;;;;;;10.98;7.90;;;3.50;99.90;;;;;;5073398;28;20076;-64
2022/03/09 00:32:43;;;;;;;15.43;8.23;;;3.50;99.90;;;;;;5072748;28;20445;-62
2022/03/09 00:35:10;;;;;;;12.02;8.00;;;3.40;99.90;;;;;;5073342;28;20090;-62
2022/03/09 00:37:36;;;;;;;10.57;7.50;;;3.50;99.90;;;;;;5073350;28;20037;-62
2022/03/09 00:40:03;;;;;;;11.70;8.82;;;3.40;99.90;;;;;;5074276;28;20478;-62
2022/03/09 00:42:28;;;;;;;14.25;8.23;;;3.40;99.90;;;;;;5076343;28;20033;-62
2022/03/09 00:44:54;;;;;;;11.77;8.18;;;3.50;99.90;;;;;;5076919;28;20055;-62
2022/03/09 00:47:20;;;;;;;15.43;7.85;;;3.40;99.90;;;;;;5076688;28;20047;-62
2022/03/09 00:49:45;;;;;;;12.20;8.20;;;3.50;99.90;;;;;;5076461;28;20044;-62
2022/03/09 00:52:11;;;;;;;13.07;8.45;;;3.40;99.90;;;;;;5075287;28;20048;-62
2022/03/09 00:54:36;;;;;;;12.23;8.10;;;3.30;99.90;;;;;;5076000;28;20047;-63
2022/03/09 00:57:02;;;;;;;12.48;7.90;;;3.30;99.90;;;;;;5075370;28;20044;-62
2022/03/09 00:59:28;;;;;;;11.10;7.68;;;3.30;99.90;;;;;;5076433;28;20048;-62
2022/03/09 01:01:53;;;;;;;11.48;7.55;;;3.20;99.90;;;;;;5076191;28;20074;-62
2022/03/09 01:04:19;;;;;;;11.38;7.85;;;3.20;99.90;;;;;;5076322;28;20068;-63
2022/03/09 01:06:45;;;;;;;12.48;8.05;;;3.20;99.90;;;;;;5076287;28;20044;-62
2022/03/09 01:09:10;;;;;;;11.70;7.97;;;3.20;99.90;;;;;;5076172;28;20459;-62
2022/03/09 01:11:37;;;;;;;11.57;7.57;;;3.20;99.90;;;;;;5076193;28;20036;-62
2022/03/09 01:14:02;;;;;;;15.93;7.95;;;3.10;99.90;;;;;;5074803;28;20457;-62
2022/03/09 01:16:28;;;;;;;11.15;8.10;;;3.10;99.90;;;;;;5076189;28;20147;-63
2022/03/09 01:18:53;;;;;;;12.55;7.63;;;3.10;99.90;;;;;;5076059;28;20143;-62
2022/03/09 01:21:19;;;;;;;12.10;8.10;;;3.10;99.90;;;;;;5075086;28;20052;-63
2022/03/09 01:23:45;;;;;;;14.35;8.10;;;3.10;99.90;;;;;;5075692;28;20125;-62
2022/03/09 01:26:10;;;;;;;12.25;8.40;;;3.10;99.90;;;;;;5076102;28;20086;-62
2022/03/09 01:28:36;;;;;;;11.27;7.57;;;3.00;99.90;;;;;;5075837;28;20449;-62
2022/03/09 01:31:01;;;;;;;12.32;8.40;;;3.00;99.90;;;;;;5075807;28;20055;-62
2022/03/09 01:33:27;;;;;;;13.63;8.30;;;3.00;99.90;;;;;;5075419;28;20043;-63
2022/03/09 01:35:53;;;;;;;13.77;8.40;;;3.10;99.90;;;;;;5076092;28;20040;-62
2022/03/09 01:38:18;;;;;;;13.02;8.07;;;3.10;99.90;;;;;;5075927;28;20044;-63
2022/03/09 01:40:44;;;;;;;12.05;8.20;;;3.20;99.90;;;;;;5074846;28;20049;-63
2022/03/09 01:43:09;;;;;;;16.23;8.40;;;3.20;99.90;;;;;;5075210;28;20051;-63
2022/03/09 01:45:35;;;;;;;13.70;8.13;;;3.20;99.90;;;;;;5075687;28;20090;-62
2022/03/09 01:48:01;;;;;;;14.32;8.25;;;3.20;99.90;;;;;;5075320;28;20052;-62
2022/03/09 01:50:27;;;;;;;12.77;8.38;;;3.30;99.90;;;;;;5075413;28;20083;-62
2022/03/09 01:52:52;;;;;;;11.77;8.00;;;3.20;99.90;;;;;;5075165;28;20068;-63
2022/03/09 01:55:18;;;;;;;12.27;8.07;;;3.10;99.90;;;;;;5074701;28;20062;-63
2022/03/09 01:57:44;;;;;;;14.45;8.57;;;3.10;99.90;;;;;;5075469;28;20024;-62
2022/03/09 02:00:11;;;;;;;11.77;8.05;;;3.00;99.90;;;;;;5075108;28;20123;-63
2022/03/09 02:02:37;;;;;;;12.88;8.48;;;2.90;99.90;;;;;;5074669;28;20052;-62
2022/03/09 02:05:03;;;;;;;13.27;8.25;;;3.00;99.90;;;;;;5075519;28;20032;-61
2022/03/09 02:10:17;;;;;;;12.00;8.48;;;2.90;99.90;;;;;;5075079;28;20449;-62
2022/03/09 02:12:43;;;;;;;10.90;8.18;;;2.90;99.90;;;;;;5073518;28;20115;-62
2022/03/09 02:15:08;;;;;;;14.13;8.60;;;3.00;99.90;;;;;;5075099;28;20120;-62
2022/03/09 02:17:34;;;;;;;12.25;8.80;;;3.00;99.90;;;;;;5074683;28;20032;-62
2022/03/09 02:20:00;;;;;;;11.35;7.95;;;3.00;99.90;;;;;;5074735;28;20366;-62
2022/03/09 02:22:32;;;;;;;12.18;8.20;;;2.90;99.90;;;;;;5074417;28;20056;-62
2022/03/09 02:24:59;;;;;;;13.20;8.32;;;2.90;99.90;;;;;;5075020;28;20041;-63
2022/03/09 02:27:25;;;;;;;13.95;8.27;;;2.80;99.90;;;;;;5075138;28;20059;-62
2022/03/09 02:29:52;;;;;;;12.63;8.50;;;2.90;99.90;;;;;;5074429;28;20453;-62
2022/03/09 02:32:18;;;;;;;12.05;8.65;;;2.90;99.90;;;;;;5073837;28;20600;-61
2022/03/09 02:34:44;;;;;;;10.77;7.78;;;2.90;99.90;;;;;;5074878;28;20044;-62
2022/03/09 02:37:10;;;;;;;12.32;8.70;;;2.90;99.90;;;;;;5074740;28;20093;-62
2022/03/09 02:39:36;;;;;;;15.43;8.88;;;2.90;99.90;;;;;;5074590;28;20115;-62
2022/03/09 02:42:03;;;;;;;12.18;8.32;;;2.80;99.90;;;;;;5074303;28;20036;-62
2022/03/09 02:44:29;;;;;;;11.18;8.05;;;2.80;99.90;;;;;;5074288;28;20039;-63
2022/03/09 02:46:55;;;;;;;11.80;8.35;;;2.80;99.90;;;;;;5074171;28;20036;-62
2022/03/09 02:49:21;;;;;;;14.27;8.55;;;2.70;99.90;;;;;;5074241;28;20043;-62
2022/03/09 02:51:47;;;;;;;12.35;8.43;;;2.70;99.90;;;;;;5074266;28;20058;-61
2022/03/09 02:54:12;;;;;;;11.48;8.02;;;2.60;99.90;;;;;;5073719;28;20123;-62
2022/03/09 02:56:38;;;;;;;12.98;8.70;;;2.50;99.90;;;;;;5074130;28;20354;-63
2022/03/09 02:59:04;;;;;;;11.85;8.45;;;2.50;99.90;;;;;;5074344;28;20043;-62
2022/03/09 03:01:30;;;;;;;14.70;9.45;;;2.40;99.90;;;;;;5074029;28;20045;-62
2022/03/09 03:03:55;;;;;;;15.93;8.85;;;2.40;99.90;;;;;;5071900;28;20032;-62
2022/03/09 03:06:21;;;;;;;13.23;8.80;;;2.30;99.90;;;;;;5073884;28;20036;-63
2022/03/09 03:08:47;;;;;;;12.63;8.88;;;2.30;99.90;;;;;;5074162;28;20055;-61
2022/03/09 03:11:12;;;;;;;13.73;8.68;;;2.30;99.90;;;;;;5074076;28;20067;-64
2022/03/09 03:13:40;;;;;;;12.05;8.35;;;2.30;99.90;;;;;;5073565;28;20181;-63
2022/03/09 03:16:07;;;;;;;13.75;9.13;;;2.20;99.90;;;;;;5073721;28;20380;-62
2022/03/09 03:18:33;;;;;;;14.82;9.18;;;2.20;99.90;;;;;;5074058;28;20040;-62
2022/03/09 03:20:59;;;;;;;13.73;8.82;;;2.10;99.90;;;;;;5073960;28;20052;-63
2022/03/09 03:23:28;;;;;;;13.85;8.82;;;2.10;99.90;;;;;;5073603;28;20440;-61
2022/03/09 03:25:55;;;;;;;14.82;9.80;;;2.10;99.90;;;;;;5074080;28;20111;-62
2022/03/09 03:28:21;;;;;;;12.85;8.60;;;2.10;99.90;;;;;;5072558;28;20136;-61
2022/03/09 03:30:47;;;;;;;11.38;8.40;;;2.10;99.90;;;;;;5074019;28;20075;-62
2022/03/09 03:33:14;;;;;;;12.80;9.10;;;2.00;99.90;;;;;;5073311;28;20048;-62
2022/03/09 03:35:41;;;;;;;12.55;8.35;;;2.00;99.90;;;;;;5073567;28;20434;-62
2022/03/09 03:38:06;;;;;;;12.70;8.57;;;2.00;99.90;;;;;;5073820;28;20055;-62
2022/03/09 03:40:32;;;;;;;12.27;8.85;;;2.00;99.90;;;;;;5073559;28;20056;-62
2022/03/09 03:42:58;;;;;;;13.93;9.07;;;2.00;99.90;;;;;;5072951;28;20047;-63
2022/03/09 03:45:24;;;;;;;14.63;8.88;;;1.90;99.90;;;;;;5074004;28;20098;-61
2022/03/09 03:47:49;;;;;;;15.48;9.75;;;1.90;99.90;;;;;;5073538;28;20036;-64
2022/03/09 03:50:15;;;;;;;13.95;9.15;;;1.90;99.90;;;;;;5073739;28;20193;-62
2022/03/09 03:52:41;;;;;;;13.18;8.93;;;1.90;99.90;;;;;;5072870;28;20040;-62
2022/03/09 03:55:07;;;;;;;13.98;8.77;;;1.90;99.90;;;;;;5073755;28;20055;-62
2022/03/09 03:57:32;;;;;;;15.27;9.60;;;1.90;99.90;;;;;;5072765;28;20056;-62
2022/03/09 03:59:58;;;;;;;11.73;8.38;;;1.80;99.90;;;;;;5073676;28;20084;-63
2022/03/09 04:02:24;;;;;;;14.50;8.32;;;1.90;99.90;;;;;;5072731;28;20059;-62
2022/03/09 04:04:52;;;;;;;13.38;8.80;;;1.80;99.90;;;;;;5073624;28;20040;-62
2022/03/09 04:07:19;;;;;;;14.77;8.93;;;1.80;99.90;;;;;;5073652;28;20055;-63
2022/03/09 04:09:45;;;;;;;15.45;9.52;;;1.80;99.90;;;;;;5072651;28;20111;-62
2022/03/09 04:12:11;;;;;;;14.60;9.35;;;1.70;99.90;;;;;;5073029;28;20029;-62
2022/03/09 04:14:37;;;;;;;12.80;8.90;;;1.70;99.90;;;;;;5075544;28;20067;-62
2022/03/09 04:17:03;;;;;;;13.40;9.10;;;1.60;99.90;;;;;;5077329;28;20086;-62
2022/03/09 04:19:28;;;;;;;13.07;8.93;;;1.60;99.90;;;;;;5076895;28;20139;-61
2022/03/09 04:21:54;;;;;;;13.30;8.77;;;1.70;99.90;;;;;;5075897;28;20105;-61
2022/03/09 04:24:20;;;;;;;13.20;9.18;;;1.60;99.90;;;;;;5076900;28;20079;-62
2022/03/09 04:26:46;;;;;;;15.85;9.13;;;1.60;99.90;;;;;;5077254;28;20431;-62
2022/03/09 04:29:12;;;;;;;14.75;9.57;;;1.60;99.90;;;;;;5077041;28;20053;-61
2022/03/09 04:31:37;;;;;;;13.93;9.23;;;1.60;99.90;;;;;;5077027;28;20044;-61
2022/03/09 04:34:03;;;;;;;13.18;8.52;;;1.50;99.90;;;;;;5076575;28;20445;-62
2022/03/09 04:36:29;;;;;;;14.80;8.57;;;1.50;99.90;;;;;;5077029;28;20055;-61
2022/03/09 04:38:55;;;;;;;13.55;9.20;;;1.50;99.90;;;;;;5076802;28;20457;-62
2022/03/09 04:41:21;;;;;;;13.65;8.82;;;1.40;99.90;;;;;;5076906;28;20051;-63
2022/03/09 04:43:47;;;;;;;13.60;9.48;;;1.50;99.90;;;;;;5076433;28;20041;-61
2022/03/09 04:46:13;;;;;;;12.93;9.05;;;1.50;99.90;;;;;;5076664;28;20206;-62
2022/03/09 04:48:39;;;;;;;13.05;9.18;;;1.40;99.90;;;;;;5076789;28;20365;-62
2022/03/09 04:51:04;;;;;;;12.32;9.02;;;1.40;99.90;;;;;;5076636;28;20040;-62
2022/03/09 04:53:31;;;;;;;13.45;8.77;;;1.40;99.90;;;;;;5076163;28;20036;-61
2022/03/09 04:55:57;;;;;;;11.60;8.75;;;1.40;99.90;;;;;;5076609;28;20047;-62
2022/03/09 04:58:23;;;;;;;11.95;8.80;;;1.40;99.90;;;;;;5076795;28;20040;-62
2022/03/09 05:00:49;;;;;;;12.25;8.95;;;1.40;99.90;;;;;;5076490;28;20185;-62
2022/03/09 05:03:15;;;;;;;13.07;9.30;;;1.30;99.90;;;;;;5075796;28;20119;-63
2022/03/09 05:05:41;;;;;;;12.73;8.73;;;1.40;99.90;;;;;;5076573;28;20033;-62
2022/03/09 05:08:07;;;;;;;13.50;8.38;;;1.30;99.90;;;;;;5076521;28;20046;-62
2022/03/09 05:10:32;;;;;;;11.52;8.43;;;1.40;99.90;;;;;;5076396;28;20041;-61
2022/03/09 05:12:58;;;;;;;14.75;9.35;;;1.30;99.90;;;;;;5075787;28;20055;-61
2022/03/09 05:15:24;;;;;;;14.63;8.50;;;1.40;99.90;;;;;;5076294;28;20028;-62
2022/03/09 05:17:49;;;;;;;14.35;8.93;;;1.40;99.90;;;;;;5076312;28;20098;-62
2022/03/09 05:20:19;;;;;;;10.98;8.40;;;1.40;99.90;;;;;;5074810;28;20049;-62
2022/03/09 05:22:45;;;;;;;12.65;8.75;;;1.40;99.90;;;;;;5075485;28;20044;-62
2022/03/09 05:25:11;;;;;;;13.55;8.20;;;1.40;99.90;;;;;;5074952;28;20050;-61
2022/03/09 05:27:37;;;;;;;14.13;8.73;;;1.40;99.90;;;;;;5075026;28;20372;-62
2022/03/09 05:30:05;;;;;;;15.02;8.80;;;1.30;99.90;;;;;;5074885;28;20446;-63
2022/03/09 05:32:30;;;;;;;14.90;8.77;;;1.30;99.90;;;;;;5074941;28;20453;-61
2022/03/09 05:34:56;;;;;;;13.32;8.73;;;1.30;99.90;;;;;;5076092;28;20055;-62
2022/03/09 05:37:22;;;;;;;14.50;8.65;;;1.20;99.90;;;;;;5074804;28;20045;-62
2022/03/09 05:39:49;;;;;;;13.38;9.18;;;1.20;99.90;;;;;;5075893;28;20051;-62
2022/03/09 05:42:15;;;;;;;12.77;9.52;;;1.20;99.90;;;;;;5075267;28;20111;-61
2022/03/09 05:44:40;;;;;;;13.02;8.82;;;1.10;99.90;;;;;;5075871;28;20120;-62
2022/03/09 05:47:06;;;;;;;12.43;8.50;;;1.10;99.90;;;;;;5075289;28;20032;-62
2022/03/09 05:49:32;;;;;;;13.35;9.02;;;1.20;99.90;;;;;;5075653;28;20081;-61
2022/03/09 05:51:58;;;;;;;14.15;8.93;;;1.10;99.90;;;;;;5074809;28;20047;-62
2022/03/09 05:54:23;;;;;;;12.30;8.57;;;1.10;99.90;;;;;;5075709;28;20044;-62
2022/03/09 05:56:49;;;;;;;12.77;8.48;;;1.00;99.90;;;;;;5059951;28;20041;-63
2022/03/09 05:59:15;;;;;;;12.85;8.88;;;1.00;99.90;;;;;;5054934;28;20409;-61
2022/03/09 06:01:40;;;;;;;15.10;8.32;;;1.00;99.90;;;;;;5054445;28;20037;-62
2022/03/09 06:04:06;;;;;;;14.52;10.07;;;1.00;99.90;;;;;;5057610;28;20499;-62
2022/03/09 06:06:33;;;;;;;14.25;9.43;;;0.90;99.90;;;;;;5054471;28;20036;-62
2022/03/09 06:08:58;;;;;;;13.60;8.80;;;0.90;99.90;;;;;;5054594;28;20044;-62
2022/03/09 06:11:24;;;;;;;15.20;8.85;;;0.90;99.90;;;;;;5052743;28;20037;-61
2022/03/09 06:13:51;;;;;;;13.38;9.23;;;1.00;99.90;;;;;;5057349;28;20048;-62
2022/03/09 06:16:17;;;;;;;14.25;8.88;;;1.00;99.90;;;;;;5053873;28;20080;-61
2022/03/09 06:18:46;;;;;;;14.10;8.55;;;0.90;99.90;;;;;;5054012;28;20079;-61
2022/03/09 06:21:13;;;;;;;14.70;8.52;;;0.90;99.90;;;;;;5052443;28;20080;-63
2022/03/09 06:23:39;;;;;;;12.18;8.98;;;1.00;99.90;;;;;;5054745;28;20036;-63
2022/03/09 06:26:05;;;;;;;13.05;8.80;;;1.00;99.90;;;;;;5054139;28;20347;-62
2022/03/09 06:28:31;;;;;;;14.52;9.00;;;1.00;99.90;;;;;;5053170;28;20413;-61
2022/03/09 06:30:57;;;;;;;13.82;8.95;;;1.00;99.90;;;;;;5053163;28;20044;-61
2022/03/09 06:33:22;;;;;;;15.60;9.88;;;1.00;99.90;;;;;;5065778;28;20056;-61
2022/03/09 06:35:48;;;;;;;13.20;9.32;;;1.00;99.90;;;;;;5073647;28;20037;-62
2022/03/09 06:38:14;;;;;;;14.25;8.75;;;1.20;99.90;;;;;;5071812;28;20051;-63
2022/03/09 06:40:39;;;;;;;13.57;8.48;;;1.50;99.90;;;;;;5054368;28;20429;-63
2022/03/09 06:43:05;;;;;;;14.68;8.70;;;1.70;99.90;;;;;;5064320;28;20107;-63
2022/03/09 06:45:31;;;;;;;13.70;8.82;;;1.80;99.90;;;;;;5074613;28;20511;-61
2022/03/09 06:47:56;;;;;;;12.07;8.35;;;1.80;99.90;;;;;;5074477;28;20032;-62
2022/03/09 06:50:22;;;;;;;14.70;8.40;;;1.70;99.90;;;;;;5074640;28;20135;-61
2022/03/09 06:52:48;;;;;;;15.15;10.20;;;1.80;99.90;;;;;;5073935;28;20445;-62
2022/03/09 06:55:13;;;;;;;14.90;8.98;;;1.70;99.90;;;;;;5074523;28;20040;-62
2022/03/09 06:57:40;;;;;;;12.75;8.63;;;1.80;99.90;;;;;;5074139;28;20154;-63
2022/03/09 07:00:07;;;;;;;13.38;8.40;;;1.90;99.90;;;;;;5073166;28;20055;-63
2022/03/09 07:02:33;;;;;;;14.52;8.63;;;1.90;99.90;;;;;;5073442;28;20373;-61
2022/03/09 07:04:58;;;;;;;14.90;8.60;;;2.10;99.90;;;;;;5074281;28;20050;-61
2022/03/09 07:07:24;;;;;;;13.07;8.60;;;2.20;99.90;;;;;;5060456;28;20525;-61
2022/03/09 07:09:50;;;;;;;13.00;8.60;;;2.30;99.90;;;;;;5053381;28;20499;-61
2022/03/09 07:12:15;;;;;;;17.45;9.55;;;2.30;99.90;;;;;;5055030;28;20047;-62
2022/03/09 07:14:42;;;;;;;12.38;8.90;;;2.40;99.90;;;;;;5068128;28;20037;-61
2022/03/09 07:17:08;;;;;;;14.82;7.97;;;2.50;99.90;;;;;;5052901;28;20470;-61
2022/03/09 07:19:34;;;;;;;14.77;9.05;;;2.60;99.90;;;;;;5051935;28;20048;-61
2022/03/09 07:21:59;;;;;;;13.13;8.63;;;2.70;99.90;;;;;;5051855;28;20521;-61
2022/03/09 07:24:25;;;;;;;17.42;9.20;;;2.70;99.90;;;;;;5054127;28;20031;-60
2022/03/09 07:26:51;;;;;;;17.85;8.55;;;2.80;99.90;;;;;;5054031;28;20044;-60
2022/03/09 07:29:17;;;;;;;14.40;8.73;;;2.90;99.90;;;;;;5053849;28;20123;-60
2022/03/09 07:31:43;;;;;;;12.52;8.27;;;3.00;99.90;;;;;;5060857;28;20041;-60
2022/03/09 07:34:09;;;;;;;14.73;9.10;;;3.10;99.90;;;;;;5072073;28;20091;-59
2022/03/09 07:36:35;;;;;;;14.20;8.85;;;3.10;99.90;;;;;;5073777;28;20072;-61
2022/03/09 07:39:00;;;;;;;12.93;8.10;;;3.20;99.90;;;;;;5056751;28;20400;-60
2022/03/09 07:41:26;;;;;;;11.82;8.60;;;3.40;99.90;;;;;;5053896;28;20041;-60
2022/03/09 07:43:52;;;;;;;13.00;8.18;;;3.40;99.90;;;;;;5069185;28;20072;-60
2022/03/09 07:46:17;;;;;;;15.65;9.02;;;3.50;99.90;;;;;;5073568;28;20048;-60
2022/03/09 07:48:43;;;;;;;14.57;8.52;;;3.70;99.90;;;;;;5074258;28;20338;-60
2022/03/09 07:51:09;;;;;;;12.73;8.82;;;3.70;99.90;;;;;;5077916;28;20066;-59
2022/03/09 07:53:34;;;;;;;13.07;8.85;;;3.80;99.90;;;;;;5075993;28;20075;-61
2022/03/09 07:56:00;;;;;;;13.13;8.13;;;3.90;99.90;;;;;;5076684;28;20048;-60
2022/03/09 07:58:26;;;;;;;12.77;8.38;;;4.00;99.90;;;;;;5070310;28;20037;-60
2022/03/09 08:00:51;;;;;;;11.25;8.57;;;4.20;99.90;;;;;;5057409;28;20055;-60
2022/03/09 08:03:17;;;;;;;15.18;8.75;;;4.30;99.90;;;;;;5068211;28;20119;-60
2022/03/09 08:05:44;;;;;;;11.55;8.15;;;4.40;99.90;;;;;;5076789;28;20072;-60
2022/03/09 08:08:10;;;;;;;10.95;8.45;;;4.50;99.90;;;;;;5077598;28;20047;-61
2022/03/09 08:10:36;;;;;;;12.52;8.18;;;4.50;99.90;;;;;;5077244;28;20124;-60
2022/03/09 08:13:01;;;;;;;12.68;8.30;;;4.60;99.90;;;;;;5076958;28;20103;-60
2022/03/09 08:15:27;;;;;;;12.23;8.43;;;4.80;99.90;;;;;;5077107;28;20044;-60
2022/03/09 08:17:53;;;;;;;12.60;8.23;;;4.90;99.90;;;;;;5077496;28;20036;-61
2022/03/09 08:20:19;;;;;;;14.48;9.00;;;5.00;99.90;;;;;;5076955;28;20493;-60
2022/03/09 08:22:45;;;;;;;11.35;7.90;;;5.10;99.90;;;;;;5076515;28;20047;-60
2022/03/09 08:25:11;;;;;;;13.48;8.73;;;5.20;99.90;;;;;;5076421;28;20040;-60
2022/03/09 08:27:36;;;;;;;12.65;7.97;;;5.20;99.90;;;;;;5077342;28;20107;-61
2022/03/09 08:30:03;;;;;;;12.48;8.07;;;5.40;99.90;;;;;;5077090;28;20509;-60
2022/03/09 08:32:29;;;;;;;12.00;7.95;;;5.50;99.40;;;;;;5076344;28;20056;-60
2022/03/09 08:34:55;;;;;;;12.02;7.45;;;5.60;99.50;;;;;;5077056;28;20037;-60
2022/03/09 08:37:20;;;;;;;12.93;8.20;;;5.70;99.00;;;;;;5076705;28;20064;-60
2022/03/09 08:39:48;;;;;;;13.18;8.18;;;5.90;98.70;;;;;;5077030;28;20048;-61
2022/03/09 08:42:17;;;;;;;11.43;8.05;;;5.90;98.30;;;;;;5076310;28;20041;-60
2022/03/09 08:44:43;;;;;;;11.43;7.40;;;5.90;98.10;;;;;;5064564;28;20033;-60
2022/03/09 08:47:09;;;;;;;11.15;7.57;;;6.00;98.20;;;;;;5055252;28;20033;-61
2022/03/09 08:49:39;;;;;;;11.63;7.65;;;6.00;98.10;;;;;;5055325;28;20036;-60
2022/03/09 08:52:06;;;;;;;11.88;8.23;;;6.20;98.00;;;;;;5057067;28;20045;-61
2022/03/09 08:54:32;;;;;;;12.55;7.85;;;6.30;98.00;;;;;;5056653;28;20060;-61
2022/03/09 08:56:58;;;;;;;12.25;8.02;;;6.50;97.10;;;;;;5056529;28;20033;-61
2022/03/09 08:59:23;;;;;;;14.02;7.80;;;6.60;96.80;;;;;;5056373;28;20409;-61
2022/03/09 09:01:49;;;;;;;12.25;7.82;;;6.70;97.00;;;;;;5053687;28;20067;-61
2022/03/09 09:04:16;;;;;;;10.65;7.28;;;6.80;96.60;;;;;;5074638;28;20036;-60
2022/03/09 09:06:43;;;;;;;14.40;8.25;;;6.90;95.60;;;;;;5076176;28;20060;-61
2022/03/09 09:09:09;;;;;;;10.82;7.28;;;6.90;95.50;;;;;;5076096;28;20466;-61
2022/03/09 09:11:35;;;;;;;10.98;7.00;;;7.00;94.90;;;;;;5074810;28;20048;-61
2022/03/09 09:14:01;;;;;;;11.70;8.00;;;7.10;94.90;;;;;;5074931;28;20044;-61
2022/03/09 09:16:27;;;;;;;10.30;7.20;;;7.20;94.50;;;;;;5076142;28;20044;-61
2022/03/09 09:18:52;;;;;;;13.60;7.63;;;7.30;94.00;;;;;;5076057;28;20365;-61
2022/03/09 09:21:18;;;;;;;15.27;8.10;;;7.40;93.70;;;;;;5076230;28;20041;-63
2022/03/09 09:23:44;;;;;;;10.43;7.00;;;7.40;93.30;;;;;;5075616;28;20036;-60
2022/03/09 09:26:09;;;;;;;12.93;7.57;;;7.50;93.00;;;;;;5074950;28;20373;-61
2022/03/09 09:28:35;;;;;;;10.23;7.22;;;7.60;92.80;;;;;;5075701;28;20159;-60
2022/03/09 09:31:01;;;;;;;11.50;7.03;;;7.70;92.40;;;;;;5074700;28;20040;-61
2022/03/09 09:33:27;;;;;;;12.23;7.43;;;7.70;92.30;;;;;;5075097;28;20086;-61
2022/03/09 09:35:53;;;;;;;12.07;7.70;;;7.80;92.10;;;;;;5076151;28;20071;-61
2022/03/09 09:38:19;;;;;;;14.20;7.15;;;7.90;92.00;;;;;;5062402;28;20499;-62
2022/03/09 09:40:46;;;;;;;10.18;6.95;;;7.90;91.90;;;;;;5055458;28;20469;-60
2022/03/09 09:43:13;;;;;;;12.20;7.30;;;8.10;91.50;;;;;;5064525;28;20039;-60
2022/03/09 09:45:41;;;;;;;11.75;7.65;;;8.10;90.80;;;;;;5075453;28;20044;-61
2022/03/09 09:48:08;;;;;;;12.50;7.55;;;8.20;91.00;;;;;;5075325;28;20032;-61
2022/03/09 09:50:34;;;;;;;12.02;7.18;;;8.30;90.40;;;;;;5075167;28;20040;-61
2022/03/09 09:53:04;;;;;;;11.05;6.93;;;8.40;90.40;;;;;;5072479;28;20068;-61
2022/03/09 09:55:30;;;;;;;11.80;7.20;;;8.50;90.40;;;;;;5075194;28;20051;-61
2022/03/09 09:57:57;;;;;;;12.10;7.13;;;8.60;90.00;;;;;;5075517;28;20358;-61
2022/03/09 10:00:23;;;;;;;12.30;7.95;;;8.60;90.00;;;;;;5075197;28;20046;-61
2022/03/09 10:02:48;;;;;;;13.55;7.35;;;8.70;90.30;;;;;;5074596;28;20357;-61
2022/03/09 10:05:16;;;;;;;12.38;7.82;;;8.70;89.80;;;;;;5075283;28;20033;-61
2022/03/09 10:08:03;;;;;;;12.05;7.32;;;8.80;89.70;;;;;;5075055;28;20041;-62
2022/03/09 10:10:38;;;;;;;10.77;7.40;;;8.90;88.80;;;;;;5074774;28;20036;-62
2022/03/09 10:13:18;;;;;;;10.10;7.03;;;9.00;88.10;;;;;;5074319;28;20069;-61
2022/03/09 10:15:46;;;;;;;11.80;7.30;;;9.00;88.80;;;;;;5074027;28;20127;-61
2022/03/09 10:18:20;;;;;;;11.75;7.43;;;9.10;88.10;;;;;;5074958;28;20041;-60
2022/03/09 10:20:49;;;;;;;12.05;7.35;;;9.20;89.30;;;;;;5074610;28;20060;-61
2022/03/09 10:23:20;;;;;;;12.85;7.28;;;9.20;87.10;;;;;;5073734;28;20105;-60
2022/03/09 10:25:47;;;;;;;11.60;7.68;;;9.30;86.60;;;;;;5074782;28;20033;-60
2022/03/09 10:28:13;;;;;;;12.88;7.63;;;9.50;85.60;;;;;;5074891;28;20055;-61
2022/03/09 10:30:42;;;;;;;11.90;7.10;;;9.60;86.10;;;;;;5074537;28;20540;-61
2022/03/09 10:33:10;;;;;;;12.90;7.43;;;9.70;85.60;;;;;;5073740;28;20381;-60
2022/03/09 10:35:46;;;;;;;11.23;7.35;;;9.80;85.10;;;;;;5074732;28;20079;-60
2022/03/09 10:38:14;;;;;;;10.45;7.55;;;9.80;83.70;;;;;;5061910;28;20452;-61
2022/03/09 10:41:08;;;;;;;10.68;6.78;;;9.90;83.90;;;;;;5054274;28;20359;-61
2022/03/09 10:43:34;;;;;;;9.80;7.28;;;9.90;83.50;;;;;;5066315;28;20037;-60
2022/03/09 10:46:09;;;;;;;11.98;7.90;;;10.00;82.80;;;;;;5073504;28;20464;-62
2022/03/09 10:49:00;;;;;;;12.77;8.02;;;10.00;83.20;;;;;;5073432;28;20040;-61
2022/03/09 10:51:43;;;;;;;12.60;7.80;;;10.20;84.30;;;;;;5074170;28;20047;-61
2022/03/09 10:54:22;;;;;;;14.93;7.95;;;10.30;84.60;;;;;;5073151;28;20037;-62
2022/03/09 10:56:49;;;;;;;11.55;7.80;;;10.30;83.30;;;;;;5074471;28;20044;-62
2022/03/09 10:59:20;;;;;;;11.48;7.63;;;10.40;80.50;;;;;;5056291;28;20120;-62
2022/03/09 11:02:07;;;;;;;14.13;8.00;;;10.50;80.60;;;;;;5053888;28;20044;-61
2022/03/09 11:04:34;;;;;;;11.23;7.47;;;10.60;80.20;;;;;;5073787;28;20178;-62
2022/03/09 11:07:00;;;;;;;11.38;7.07;;;10.70;79.80;;;;;;5073026;28;20040;-61
2022/03/09 11:09:25;;;;;;;11.93;8.00;;;10.80;79.60;;;;;;5073950;28;20029;-62
2022/03/09 11:11:51;;;;;;;11.05;7.90;;;10.90;78.60;;;;;;5073872;28;20047;-62
2022/03/09 11:14:19;;;;;;;14.00;7.72;;;10.90;79.20;;;;;;5073727;28;20110;-61
2022/03/09 11:16:46;;;;;;;12.48;7.72;;;11.00;79.40;;;;;;5073840;28;20083;-64
2022/03/09 11:19:13;;;;;;;13.20;7.65;;;11.20;77.20;;;;;;5073828;28;20044;-62
2022/03/09 11:21:39;;;;;;;11.85;8.20;;;11.20;76.50;;;;;;5073674;28;20063;-62
2022/03/09 11:24:15;;;;;;;12.68;8.52;;;11.20;77.20;;;;;;5073294;28;20042;-62
2022/03/09 11:26:48;;;;;;;13.13;8.07;;;11.20;77.10;;;;;;5074053;28;20048;-62
2022/03/09 11:29:14;;;;;;;13.77;8.25;;;11.30;76.70;;;;;;5073700;28;20461;-61
2022/03/09 11:31:51;;;;;;;11.77;7.78;;;11.40;75.40;;;;;;5072248;28;20119;-63
2022/03/09 11:34:41;;;;;;;12.13;7.78;;;11.30;73.90;;;;;;5073512;28;20350;-61
2022/03/09 11:37:14;;;;;;;13.48;7.72;;;11.40;75.20;;;;;;5070345;28;20033;-61
2022/03/09 11:40:02;;;;;;;11.88;8.15;;;11.40;76.70;;;;;;5052937;28;20045;-61
2022/03/09 11:42:31;;;;;;;13.05;8.48;;;11.50;74.90;;;;;;5058157;28;20417;-61
2022/03/09 11:45:29;;;;;;;12.80;8.75;;;11.50;73.10;;;;;;5071811;28;20036;-61
2022/03/09 11:48:14;;;;;;;15.32;8.65;;;11.60;73.00;;;;;;5052246;28;20129;-61
2022/03/09 11:51:15;;;;;;;13.43;8.77;;;11.70;73.70;;;;;;5056539;28;20029;-61
2022/03/09 11:53:43;;;;;;;13.00;8.63;;;11.80;72.10;;;;;;5045326;28;20097;-61
2022/03/09 11:56:24;;;;;;;13.20;9.43;;;11.80;71.60;;;;;;5065247;28;20045;-63
2022/03/09 11:59:25;;;;;;;12.77;8.18;;;11.90;71.00;;;;;;5072283;28;20173;-61
2022/03/09 12:01:57;;;;;;;12.73;8.68;;;11.90;71.10;;;;;;5072722;28;20064;-61
2022/03/09 12:04:53;;;;;;;12.82;8.93;;;12.00;71.40;;;;;;5057319;28;20437;-62
2022/03/09 12:07:33;;;;;;;13.45;7.95;;;12.00;71.20;;;;;;5070830;28;20033;-61
2022/03/09 12:10:12;;;;;;;13.93;9.35;;;12.10;71.80;;;;;;5073085;28;20033;-61
2022/03/09 12:13:11;;;;;;;11.98;7.85;;;12.10;70.60;;;;;;5072816;28;20115;-62
2022/03/09 12:16:00;;;;;;;12.15;8.48;;;12.00;69.80;;;;;;5073301;28;20047;-61
2022/03/09 12:18:38;;;;;;;14.50;8.40;;;12.10;69.90;;;;;;5073556;28;20037;-62
2022/03/09 12:21:08;;;;;;;14.77;8.73;;;12.10;69.80;;;;;;5073393;28;20716;-61
2022/03/09 12:23:35;;;;;;;12.63;8.48;;;12.10;68.60;;;;;;5073055;28;20040;-61
2022/03/09 12:26:01;;;;;;;11.07;8.55;;;12.10;68.90;;;;;;5073394;28;20036;-63
2022/03/09 12:28:34;;;;;;;10.98;8.23;;;12.20;69.40;;;;;;5073360;28;20036;-61
2022/03/09 12:30:59;;;;;;;14.57;9.07;;;12.20;68.30;;;;;;5072095;28;20047;-61
2022/03/09 12:33:30;;;;;;;15.32;8.38;;;12.10;68.00;;;;;;5072937;28;20034;-61
2022/03/09 12:36:12;;;;;;;12.88;8.65;;;12.10;67.20;;;;;;5074670;28;20051;-61
2022/03/09 12:38:55;;;;;;;15.45;8.50;;;12.10;67.90;;;;;;5060645;28;20055;-61
2022/03/09 12:41:32;;;;;;;13.70;8.45;;;12.10;68.30;;;;;;5056664;28;20033;-62
2022/03/09 12:44:02;;;;;;;13.88;8.93;;;12.20;68.00;;;;;;5071050;28;20063;-61
2022/03/09 12:46:29;;;;;;;12.10;8.77;;;12.20;66.80;;;;;;5076705;28;20178;-61
2022/03/09 12:49:21;;;;;;;13.13;8.77;;;12.30;67.50;;;;;;5069599;28;20040;-62
2022/03/09 12:51:51;;;;;;;15.38;8.57;;;12.30;65.20;;;;;;5055975;28;20430;-62